Latest Weather Observations for Renmark Airport

IDS60801

Issued at 11:01 pm CST Wednesday 4 May 2016 (issued every 30 minutes, with the page automatically refreshed every 10 minutes)

About weather observations | Map of weather stations | Latest weather observations for SA | Other Formats
Station Details ID: 024048 Name: RENMARK AERO Lat: -34.20 Lon: 140.68 Height: 31.5 m
Data from the previous 72 hours. | See also: Recent months at Renmark Airport
Date/Time
CST
Temp
°C
App
Temp
°C
Dew
Point
Rel
Hum
%
Delta-T
°C
Wind Press
QNH
hPa
Press
MSL
hPa
Rain
since 9 am
mm
Dir
 
Spd
km/h
Gust
km/h
Spd
kts
Gust
kts
04/11:00pm 11.8 10.4 7.1 73 2.3 W 4 7 2 4 1017.6 1017.6 0.0
04/10:30pm 13.3 10.1 6.9 65 3.1 N 13 15 7 8 1017.7 1017.7 0.0
04/10:00pm 13.8 10.7 7.1 64 3.3 N 13 15 7 8 1017.9 1017.9 0.0
04/09:30pm 14.0 11.3 7.3 64 3.3 N 11 13 6 7 1017.8 1017.8 0.0
04/09:00pm 13.8 10.8 7.8 67 3.0 N 13 15 7 8 1017.7 1017.7 0.0
04/08:30pm 14.0 11.3 7.5 65 3.2 N 11 13 6 7 1017.6 1017.6 0.0
04/08:00pm 14.5 11.8 7.5 63 3.5 N 11 13 6 7 1017.4 1017.4 0.0
04/07:30pm 15.8 13.2 7.8 59 4.0 N 11 11 6 6 1017.3 1017.3 0.0
04/07:00pm 17.2 15.4 8.1 55 4.6 N 7 7 4 4 1017.2 1017.2 0.0
04/06:30pm 17.7 16.1 8.0 53 4.9 NNW 6 7 3 4 1016.8 1016.8 0.0
04/06:00pm 18.3 16.1 8.0 51 5.3 NW 9 9 5 5 1016.4 1016.4 0.0
04/05:30pm 18.5 15.9 7.6 49 5.5 NW 11 15 6 8 1016.3 1016.3 0.0
04/05:00pm 18.7 15.3 7.5 48 5.7 NW 15 19 8 10 1016.3 1016.3 0.0
04/04:30pm 18.9 15.4 7.4 47 5.8 WNW 15 19 8 10 1016.2 1016.2 0.0
04/04:00pm 19.2 15.7 7.3 46 6.0 WNW 15 20 8 11 1016.0 1016.0 0.0
04/03:30pm 19.4 15.4 6.8 44 6.3 W 17 26 9 14 1016.0 1016.0 0.0
04/03:00pm 19.3 15.8 7.1 45 6.2 W 15 24 8 13 1016.0 1016.0 0.0
04/02:30pm 19.4 15.4 6.8 44 6.3 W 17 24 9 13 1016.0 1016.0 0.0
04/02:00pm 19.0 14.0 6.5 44 6.2 W 22 30 12 16 1016.0 1016.0 0.0
04/01:30pm 20.0 16.9 7.4 44 6.4 WSW 13 20 7 11 1016.2 1016.2 0.0
04/01:00pm 19.1 14.8 7.2 46 6.0 W 19 24 10 13 1016.5 1016.5 0.0
04/12:30pm 18.4 14.6 7.5 49 5.5 WSW 17 22 9 12 1017.0 1017.0 0.0
04/12:00pm 18.1 14.7 7.5 50 5.4 W 15 22 8 12 1017.4 1017.4 0.0
04/11:30am 17.4 13.6 7.5 52 5.0 WSW 17 22 9 12 1017.8 1017.8 0.0
04/11:00am 18.4 15.3 8.7 53 5.0 W 15 26 8 14 1018.0 1018.0 0.0
04/10:30am 17.1 13.7 9.3 60 4.1 W 17 20 9 11 1018.4 1018.4 0.0
04/10:00am 16.7 13.9 8.7 59 4.1 WNW 13 19 7 10 1018.2 1018.2 0.0
04/09:30am 16.7 14.0 10.5 67 3.3 WNW 15 20 8 11 1018.1 1018.1 0.0
04/09:00am 15.8 13.7 11.0 73 2.6 WNW 13 19 7 10 1018.0 1018.0 0.0
04/08:30am 14.4 12.6 11.0 80 1.8 WNW 11 17 6 9 1018.0 1018.0 0.0
04/08:00am 13.3 12.2 11.9 91 0.8 W 9 13 5 7 1017.5 1017.5 0.0
04/07:30am 11.7 12.2 11.7 100 0.0 CALM 0 6 0 3 1017.1 1017.1 0.0
04/07:00am 11.1 11.1 11.1 100 0.0 NNW 2 6 1 3 1016.7 1016.7 0.0
04/06:30am 11.3 10.0 11.3 100 0.0 NW 9 11 5 6 1016.3 1016.3 0.0
04/06:00am 11.5 10.3 11.5 100 0.0 NW 9 13 5 7 1015.8 1015.8 0.0
04/05:30am 12.2 10.8 12.2 100 0.0 NW 11 11 6 6 1015.6 1015.5 0.0
04/05:00am 11.8 12.4 11.8 100 0.0 CALM 0 0 0 0 1015.3 1015.3 0.0
04/04:30am 11.9 11.7 11.9 100 0.0 NW 4 6 2 3 1014.9 1014.9 0.0
04/04:00am 11.4 10.7 11.4 100 0.0 WNW 6 7 3 4 1014.8 1014.8 0.0
04/03:30am 12.1 12.4 10.8 92 0.7 CALM 0 0 0 0 1014.5 1014.5 0.0
04/03:00am 13.3 13.8 11.5 89 1.0 CALM 0 0 0 0 1014.4 1014.4 0.0
04/02:30am 13.6 13.3 11.5 87 1.1 SW 4 9 2 5 1014.4 1014.4 0.0
04/02:00am 13.7 12.3 11.0 84 1.4 WSW 9 13 5 7 1014.3 1014.3 0.0
04/01:30am 13.8 11.7 11.1 84 1.4 W 13 17 7 9 1014.1 1014.1 0.0
04/01:00am 13.6 11.9 11.3 86 1.2 WNW 11 15 6 8 1014.0 1014.0 0.0
04/12:30am 13.6 11.6 11.5 87 1.1 WNW 13 17 7 9 1014.0 1014.0 0.0
04/12:00am 13.4 11.9 11.8 90 0.9 WNW 11 13 6 7 1014.0 1014.0 0.0
 
Date/Time
CST
Temp
°C
App
Temp
°C
Dew
Point
Rel
Hum
%
Delta-T
°C
Wind Press
QNH
hPa
Press
MSL
hPa
Rain
since 9 am
mm
Dir
 
Spd
km/h
Gust
km/h
Spd
kts
Gust
kts
03/11:30pm 13.4 11.2 12.0 91 0.8 WNW 15 19 8 10 1013.8 1013.8 0.0
03/11:00pm 13.9 12.6 12.5 91 0.8 NW 11 15 6 8 1013.8 1013.8 0.0
03/10:30pm 13.8 12.9 12.5 92 0.7 NW 9 13 5 7 1013.7 1013.7 0.0
03/10:00pm 14.0 13.4 13.4 96 0.3 W 9 9 5 5 1013.5 1013.5 0.0
03/09:30pm 14.5 15.3 12.7 89 1.0 CALM 0 0 0 0 1013.4 1013.4 0.0
03/09:00pm 15.2 14.7 12.5 84 1.5 SSW 7 9 4 5 1013.5 1013.5 0.0
03/08:30pm 15.8 12.9 12.4 80 1.9 W 19 24 10 13 1012.8 1012.8 0.0
03/08:00pm 16.3 14.2 12.5 78 2.1 W 15 26 8 14 1012.5 1012.5 0.0
03/07:30pm 16.3 13.3 12.5 78 2.1 W 20 28 11 15 1012.0 1012.0 0.0
03/07:00pm 16.3 13.3 12.5 78 2.1 W 20 28 11 15 1011.5 1011.5 0.0
03/06:30pm 16.6 13.7 12.8 78 2.1 W 20 30 11 16 1010.9 1010.9 0.0
03/06:00pm 16.6 14.0 13.9 84 1.5 W 20 30 11 16 1010.6 1010.6 0.0
03/05:30pm 16.1 12.5 13.0 82 1.7 W 24 35 13 19 1009.7 1009.7 0.0
03/05:00pm 17.1 12.1 14.0 82 1.8 WSW 33 50 18 27 1009.3 1009.3 0.0
03/04:30pm 19.7 14.4 11.2 58 4.7 W 30 50 16 27 1008.3 1008.3 0.0
03/04:21pm 19.8 14.1 11.0 57 4.8 WNW 32 50 17 27 1008.1 1008.1 0.0
03/04:00pm 19.1 13.2 11.2 60 4.3 W 33 44 18 24 1008.0 1008.0 0.0
03/03:30pm 17.5 13.0 15.0 85 1.5 W 32 46 17 25 1008.2 1008.2 0.0
03/03:13pm 19.0 14.2 11.8 63 4.0 W 28 46 15 25 1007.8 1007.8 0.0
03/03:00pm 21.0 16.2 10.2 50 5.9 W 26 35 14 19 1007.3 1007.3 0.0
03/02:30pm 21.4 15.7 9.9 48 6.2 W 30 43 16 23 1007.1 1007.1 0.0
03/02:01pm 20.8 14.9 10.3 51 5.7 W 32 50 17 27 1007.3 1007.3 0.0
03/02:00pm 20.8 14.7 10.3 51 5.7 W 33 50 18 27 1007.3 1007.3 0.0
03/01:57pm 21.0 14.5 10.5 51 5.7 W 35 54 19 29 1007.4 1007.4 0.0
03/01:30pm 21.0 14.8 10.2 50 5.9 W 33 46 18 25 1007.3 1007.3 0.0
03/01:07pm 21.1 14.1 10.0 49 6.0 W 37 57 20 31 1007.4 1007.4 0.0
03/01:00pm 21.1 15.1 10.0 49 6.0 W 32 48 17 26 1007.4 1007.4 0.0
03/12:47pm 20.9 14.6 9.8 49 6.0 W 33 52 18 28 1007.7 1007.7 0.0
03/12:30pm 21.2 14.1 9.4 47 6.3 W 37 48 20 26 1007.8 1007.8 0.0
03/12:00pm 20.6 13.8 9.2 48 6.1 W 35 56 19 30 1008.1 1008.1 0.0
03/11:33am 20.6 13.8 9.2 48 6.1 WNW 35 54 19 29 1008.3 1008.3 0.0
03/11:30am 20.7 14.2 9.0 47 6.2 WNW 33 44 18 24 1008.4 1008.4 0.0
03/11:00am 20.3 13.5 7.7 44 6.5 WNW 33 46 18 25 1008.7 1008.7 0.0
03/10:47am 20.9 14.0 7.2 41 7.0 WNW 33 56 18 30 1008.5 1008.5 0.0
03/10:30am 20.0 13.5 6.7 42 6.7 NW 30 41 16 22 1008.5 1008.5 0.0
03/10:00am 19.3 13.2 6.4 43 6.4 NW 28 39 15 21 1008.8 1008.8 0.0
03/09:30am 18.4 11.1 5.3 42 6.4 NW 33 43 18 23 1008.7 1008.7 0.0
03/09:00am 17.2 9.7 4.2 42 6.1 NW 33 44 18 24 1008.7 1008.7 0.0
03/08:30am 16.5 9.1 3.9 43 5.9 NW 32 41 17 22 1008.9 1008.9 0.0
03/08:00am 15.4 8.7 3.5 45 5.4 NW 28 37 15 20 1009.0 1009.0 0.0
03/07:30am 14.2 8.2 3.4 48 4.9 NW 24 32 13 17 1009.0 1009.0 0.0
03/07:00am 13.1 7.9 3.5 52 4.3 NNW 20 32 11 17 1008.8 1008.8 0.0
03/06:30am 13.3 7.3 3.4 51 4.4 NNW 24 33 13 18 1008.6 1008.6 0.0
03/06:00am 13.6 7.2 3.4 50 4.6 NNW 26 37 14 20 1008.3 1008.3 0.0
03/05:30am 14.1 7.7 3.3 48 4.9 NNW 26 39 14 21 1008.5 1008.5 0.0
03/05:00am 13.9 7.5 3.4 49 4.7 NNW 26 32 14 17 1008.3 1008.3 0.0
03/04:30am 13.8 8.2 3.3 49 4.7 NNW 22 28 12 15 1008.7 1008.7 0.0
03/04:00am 13.1 7.8 3.2 51 4.4 NNW 20 24 11 13 1008.9 1008.9 0.0
03/03:30am 13.0 7.8 3.4 52 4.3 NW 20 28 11 15 1009.3 1009.3 0.0
03/03:00am 11.8 7.1 3.3 56 3.8 NNW 17 20 9 11 1009.7 1009.7 0.0
03/02:30am 12.2 8.3 3.4 55 3.9 NNW 13 17 7 9 1010.1 1010.1 0.0
03/02:00am 12.4 8.5 3.4 54 4.0 NNW 13 15 7 8 1010.4 1010.4 0.0
03/01:30am 13.4 9.1 3.5 51 4.5 NW 15 20 8 11 1010.6 1010.6 0.0
03/01:00am 13.8 9.2 3.6 50 4.6 WNW 17 20 9 11 1010.7 1010.7 0.0
03/12:30am 12.8 9.5 4.3 56 3.9 NW 11 13 6 7 1010.8 1010.8 0.0
03/12:00am 13.7 9.9 4.0 52 4.4 NNW 13 15 7 8 1010.9 1010.9 0.0
 
Date/Time
CST
Temp
°C
App
Temp
°C
Dew
Point
Rel
Hum
%
Delta-T
°C
Wind Press
QNH
hPa
Press
MSL
hPa
Rain
since 9 am
mm
Dir
 
Spd
km/h
Gust
km/h
Spd
kts
Gust
kts
02/11:30pm 14.5 10.3 3.9 49 4.9 NW 15 19 8 10 1011.2 1011.2 0.0
02/11:00pm 15.3 10.5 4.4 48 5.1 NNW 19 22 10 12 1011.4 1011.4 0.0
02/10:30pm 15.3 10.9 4.7 49 5.0 NW 17 22 9 12 1011.6 1011.6 0.0
02/10:00pm 15.5 11.1 4.8 49 5.0 NW 17 20 9 11 1011.8 1011.8 0.0
02/09:30pm 15.9 12.0 5.2 49 5.1 NNW 15 20 8 11 1011.8 1011.8 0.0
02/09:00pm 15.2 12.1 5.7 53 4.5 NNW 11 15 6 8 1012.0 1012.0 0.0
02/08:30pm 16.4 12.7 6.2 51 5.0 NNW 15 20 8 11 1012.1 1012.1 0.0
02/08:00pm 15.5 12.2 6.5 55 4.4 NNW 13 15 7 8 1012.3 1012.3 0.0
02/07:30pm 15.9 13.3 6.3 53 4.7 NW 9 11 5 6 1012.4 1012.4 0.0
02/07:00pm 18.0 14.7 6.5 47 5.7 WNW 13 17 7 9 1012.4 1012.4 0.0
02/06:30pm 18.3 15.0 6.2 45 6.0 WNW 13 20 7 11 1012.3 1012.3 0.0
02/06:00pm 19.3 15.1 5.7 41 6.7 WNW 17 22 9 12 1011.9 1011.9 0.0
02/05:30pm 19.8 15.0 5.5 39 7.0 W 20 32 11 17 1011.8 1011.8 0.0
02/05:00pm 20.7 15.6 3.9 33 8.1 WNW 20 33 11 18 1011.6 1011.6 0.0
02/04:30pm 21.3 16.1 3.5 31 8.5 WNW 20 32 11 17 1011.6 1011.6 0.0
02/04:00pm 21.1 14.8 3.8 32 8.3 W 26 35 14 19 1011.6 1011.6 0.0
02/03:30pm 21.1 14.3 3.3 31 8.5 WNW 28 37 15 20 1011.7 1011.7 0.0
02/03:00pm 21.8 16.1 3.0 29 9.0 WNW 22 33 12 18 1011.8 1011.8 0.0
02/02:30pm 21.7 15.7 3.4 30 8.8 W 24 35 13 19 1012.1 1012.1 0.0
02/02:00pm 21.5 16.5 3.7 31 8.6 WNW 19 32 10 17 1012.3 1012.3 0.0
02/01:30pm 20.6 14.7 3.8 33 8.0 W 24 33 13 18 1012.8 1012.8 0.0
02/01:00pm 20.6 15.4 3.3 32 8.2 WNW 20 32 11 17 1013.1 1013.1 0.0
02/12:30pm 19.7 14.0 2.6 32 7.9 WNW 22 30 12 16 1013.6 1013.6 0.0
02/12:00pm 19.9 14.3 3.2 33 7.9 WNW 22 37 12 20 1014.1 1014.1 0.0
02/11:30am 19.5 13.2 4.0 36 7.4 NW 26 37 14 20 1014.6 1014.6 0.0
02/11:00am 19.0 12.7 4.0 37 7.1 WNW 26 37 14 20 1015.0 1015.0 0.0
02/10:30am 18.4 11.7 3.8 38 6.9 NW 28 37 15 20 1015.2 1015.2 0.0
02/10:00am 17.5 12.0 4.1 41 6.3 NNW 22 28 12 15 1015.2 1015.2 0.0
02/09:30am 15.8 11.8 5.1 49 5.1 NNW 15 19 8 10 1015.6 1015.5 0.0
02/09:00am 14.0 10.4 5.1 55 4.2 NNW 13 17 7 9 1015.9 1015.9 0.0
02/08:30am 12.7 9.1 5.1 60 3.5 NNW 13 17 7 9 1016.0 1016.0 0.0
02/08:00am 11.9 8.3 5.1 63 3.1 N 13 19 7 10 1015.9 1015.9 0.0
02/07:30am 10.1 6.2 5.3 72 2.2 N 15 19 8 10 1015.8 1015.8 0.0
02/07:00am 5.8 4.8 5.8 100 0.0 CALM 0 6 0 3 1015.8 1015.8 0.0
02/06:30am 5.6 4.6 5.6 100 0.0 CALM 0 7 0 4 1015.8 1015.8 0.0
02/06:00am 5.9 5.0 5.9 100 0.0 CALM 0 6 0 3 1015.7 1015.7 0.0
02/05:30am 6.9 5.8 6.9 100 0.0 NNE 2 7 1 4 1015.7 1015.7 0.0
02/05:00am 7.9 6.2 7.5 97 0.2 NE 6 9 3 5 1015.7 1015.7 0.0
02/04:30am 8.6 7.8 6.7 88 0.9 CALM 0 0 0 0 1015.9 1015.9 0.0
02/04:00am 8.6 8.1 7.8 95 0.4 CALM 0 0 0 0 1016.2 1016.2 0.0
02/03:30am 8.4 7.9 7.8 96 0.3 CALM 0 0 0 0 1016.3 1016.3 0.0
02/03:00am 8.8 8.2 7.4 91 0.7 CALM 0 6 0 3 1016.5 1016.5 0.0
02/02:30am 8.8 6.9 7.4 91 0.7 WNW 7 9 4 5 1016.6 1016.6 0.0
02/02:00am 8.8 7.6 8.2 96 0.3 WSW 4 7 2 4 1016.9 1016.9 0.0
02/01:30am 8.5 7.4 8.5 100 0.0 W 4 7 2 4 1017.0 1017.0 0.0
02/01:00am 8.8 7.1 8.4 97 0.2 NE 7 7 4 4 1017.1 1017.1 0.0
02/12:30am 7.4 6.8 7.4 100 0.0 CALM 0 0 0 0 1017.4 1017.4 0.0
02/12:00am 8.0 6.8 8.0 100 0.0 WNW 4 6 2 3 1017.7 1017.7 0.0
 
Date/Time
CST
Temp
°C
App
Temp
°C
Dew
Point
Rel
Hum
%
Delta-T
°C
Wind Press
QNH
hPa
Press
MSL
hPa
Rain
since 9 am
mm
Dir
 
Spd
km/h
Gust
km/h
Spd
kts
Gust
kts
01/11:30pm 8.3 7.5 8.2 99 0.0 WNW 2 6 1 3 1017.9 1017.9 0.0

Other Formats:

Comma delimited format used in spreadsheet applications
http://www.bom.gov.au/fwo/IDS60801/IDS60801.95687.axf

JavaScript Object Notation format (JSON) in row-major order
http://www.bom.gov.au/fwo/IDS60801/IDS60801.95687.json